SDM3750 URSS-UGTB
Flight info
| Callsign | SDM3750 |
|---|---|
| Flight time | N/A |
| Altitude | 33000 |
| Route | TABAN1S TABAN B147 BANUT L850 TAGAR DCT GIMUR |
| Aircraft | A320/M-SDE3FGHIRWY/LB1 |
Departure
| Time | N/A |
|---|---|
| Airport | Sochi International Airport (URSS) |
Arrival
| Time | 2026-04-30 18:16 |
|---|---|
| Airport | Tbilisi International Airport (UGTB) |
| Time | Latitude | Longitude | Altitude | Speed | Heading |
|---|---|---|---|---|---|
| 2026-04-30 17:39 | 42.81271 | 40.79396 | 33087 ft | 459 kts | 110° |
| 2026-04-30 17:42 | 42.72114 | 41.20045 | 33118 ft | 469 kts | 110° |
| 2026-04-30 17:43 | 42.67284 | 41.41237 | 33097 ft | 469 kts | 110° |
| 2026-04-30 17:44 | 42.61460 | 41.66453 | 31805 ft | 460 kts | 110° |
| 2026-04-30 17:46 | 42.56743 | 41.86766 | 29262 ft | 443 kts | 110° |
| 2026-04-30 17:47 | 42.53065 | 42.02361 | 27302 ft | 428 kts | 110° |
| 2026-04-30 17:48 | 42.49487 | 42.17501 | 25497 ft | 415 kts | 110° |
| 2026-04-30 17:48 | 42.46874 | 42.28494 | 24187 ft | 406 kts | 110° |
| 2026-04-30 17:49 | 42.43444 | 42.42807 | 22334 ft | 393 kts | 110° |
| 2026-04-30 17:50 | 42.40109 | 42.56663 | 20617 ft | 382 kts | 110° |
| 2026-04-30 17:51 | 42.37668 | 42.66742 | 19415 ft | 374 kts | 110° |
| 2026-04-30 17:52 | 42.35263 | 42.76653 | 18257 ft | 366 kts | 110° |
| 2026-04-30 17:53 | 42.31339 | 42.92693 | 16214 ft | 355 kts | 111° |
| 2026-04-30 17:54 | 42.28263 | 43.05204 | 14745 ft | 347 kts | 111° |
| 2026-04-30 17:55 | 42.25296 | 43.17441 | 13232 ft | 339 kts | 111° |
| 2026-04-30 17:56 | 42.22386 | 43.29463 | 13111 ft | 338 kts | 111° |
| 2026-04-30 17:57 | 42.20188 | 43.38508 | 13110 ft | 338 kts | 111° |
| 2026-04-30 17:58 | 42.17977 | 43.47528 | 13112 ft | 338 kts | 111° |
| 2026-04-30 17:59 | 42.15041 | 43.59490 | 12993 ft | 337 kts | 111° |
| 2026-04-30 18:00 | 42.12085 | 43.71481 | 12992 ft | 337 kts | 111° |
| 2026-04-30 18:00 | 42.09866 | 43.80431 | 13000 ft | 337 kts | 111° |
| 2026-04-30 18:01 | 42.08378 | 43.86420 | 12999 ft | 337 kts | 111° |
| 2026-04-30 18:02 | 42.06140 | 43.95394 | 13003 ft | 337 kts | 111° |
| 2026-04-30 18:02 | 42.03896 | 44.04336 | 12591 ft | 333 kts | 111° |
| 2026-04-30 18:03 | 42.01708 | 44.13051 | 11456 ft | 326 kts | 108° |
| 2026-04-30 18:04 | 42.00240 | 44.21860 | 10382 ft | 317 kts | 103° |
| 2026-04-30 18:05 | 41.98304 | 44.33409 | 8460 ft | 317 kts | 103° |
| 2026-04-30 18:06 | 41.96420 | 44.44648 | 6994 ft | 278 kts | 103° |
| 2026-04-30 18:07 | 41.95272 | 44.51652 | 7013 ft | 239 kts | 104° |
| 2026-04-30 18:08 | 41.94144 | 44.58175 | 7013 ft | 239 kts | 103° |
| 2026-04-30 18:09 | 41.90426 | 44.65228 | 7015 ft | 236 kts | 137° |
| 2026-04-30 18:10 | 41.86270 | 44.70537 | 7016 ft | 183 kts | 137° |
| 2026-04-30 18:11 | 41.82561 | 44.75252 | 6140 ft | 187 kts | 137° |
| 2026-04-30 18:11 | 41.79711 | 44.78878 | 4804 ft | 185 kts | 137° |
| 2026-04-30 18:12 | 41.77228 | 44.82035 | 4225 ft | 153 kts | 136° |
| 2026-04-30 18:13 | 41.75710 | 44.83962 | 3643 ft | 150 kts | 136° |
| 2026-04-30 18:13 | 41.73695 | 44.86552 | 2907 ft | 152 kts | 135° |
| 2026-04-30 18:14 | 41.72006 | 44.88701 | 2533 ft | 140 kts | 137° |
| 2026-04-30 18:15 | 41.69876 | 44.91350 | 2243 ft | 140 kts | 136° |
| 2026-04-30 18:15 | 41.67779 | 44.94021 | 1592 ft | 139 kts | 135° |
| 2026-04-30 18:16 | 41.66733 | 44.95341 | 1524 ft | 33 kts | 137° |
| 2026-04-30 18:16 | 41.66479 | 44.95648 | 1524 ft | 43 kts | 137° |
| 2026-04-30 18:17 | 41.66256 | 44.95932 | 1521 ft | 44 kts | 136° |
| 2026-04-30 18:17 | 41.66039 | 44.96214 | 1525 ft | 43 kts | 137° |
| 2026-04-30 18:17 | 41.65867 | 44.96576 | 1522 ft | 0 kts | 38° |
| 2026-04-30 18:19 | 41.65907 | 44.96598 | 1524 ft | 11 kts | 11° |
| 2026-04-30 18:19 | 41.65962 | 44.96562 | 1526 ft | 9 kts | 320° |
| 2026-04-30 18:19 | 41.66006 | 44.96510 | 1523 ft | 9 kts | 317° |
| 2026-04-30 18:20 | 41.66056 | 44.96447 | 1526 ft | 12 kts | 317° |
| 2026-04-30 18:20 | 41.66128 | 44.96359 | 1524 ft | 16 kts | 319° |
| 2026-04-30 18:20 | 41.66242 | 44.96306 | 1520 ft | 19 kts | 1° |
| 2026-04-30 18:20 | 41.66384 | 44.96334 | 1525 ft | 22 kts | 13° |
| 2026-04-30 18:21 | 41.66541 | 44.96386 | 1527 ft | 25 kts | 12° |
| 2026-04-30 18:21 | 41.66694 | 44.96433 | 1527 ft | 9 kts | 358° |
| 2026-04-30 18:21 | 41.66724 | 44.96419 | 1527 ft | 0 kts | 334° |
| 2026-04-30 18:21 | 41.66725 | 44.96416 | 1523 ft | 1 kts | 318° |
| 2026-04-30 18:22 | 41.66710 | 44.96380 | 1523 ft | 5 kts | 226° |
| 2026-04-30 18:22 | 41.66673 | 44.96329 | 1527 ft | 0 kts | 223° |
| 2026-04-30 18:27 | 41.66674 | 44.96329 | 1527 ft | 0 kts | 223° |